Terminal Aerodrome Forecast
Issued by NWS Charleston, WV

Home | Current Version | Previous Version | Text Only | Print | Product List | Glossary On
Versions: 1 2 3 4 5 6 7 8 9 10 11 12 13 14 15 16 17 18 19 20 21 22 23 24
000
FTUS41 KRLX 301100
TAFHTS
TAF
KHTS 301120Z 3012/3112 00000KT P6SM OVC045
     FM301500 30003KT P6SM SCT050
     FM310800 00000KT 6SM BR BKN060=

USA.gov is the U.S. government's official web portal to all federal, state and local government web resources and services.